Time;durP1;ratioP1;P1;durP2;ratioP2;P2;SDS_P1;SDS_P2;PMS_P1;PMS_P2;Temp;Humidity;BMP_temperature;BMP_pressure;BME280_temperature;BME280_humidity;BME280_pressure;Samples;Min_cycle;Max_cycle;Signal;HPM_P1;HPM_P2
2022/04/28 00:02:00;;;;;;;17.83;4.47;;;7.90;99.90;;;;;;5118264;28;20401;-79
2022/04/28 00:04:27;;;;;;;9.15;3.75;;;7.90;99.90;;;;;;5116063;28;20123;-79
2022/04/28 00:06:53;;;;;;;10.52;3.67;;;7.90;99.90;;;;;;5116776;28;20467;-79
2022/04/28 00:09:19;;;;;;;10.27;4.10;;;7.90;99.90;;;;;;5116445;28;20043;-79
2022/04/28 00:11:45;;;;;;;11.32;3.88;;;7.90;99.90;;;;;;5096618;28;20522;-79
2022/04/28 00:14:10;;;;;;;10.30;3.65;;;7.90;99.90;;;;;;5105491;28;20035;-79
2022/04/28 00:16:36;;;;;;;13.73;3.95;;;7.90;99.90;;;;;;5118076;28;20375;-79
2022/04/28 00:19:03;;;;;;;8.60;3.58;;;7.80;99.90;;;;;;5108906;28;20035;-79
2022/04/28 00:21:29;;;;;;;8.95;3.67;;;7.80;99.90;;;;;;5097547;28;20069;-79
2022/04/28 00:23:55;;;;;;;12.80;3.80;;;7.80;99.90;;;;;;5095247;28;20048;-79
2022/04/28 00:26:21;;;;;;;11.55;3.70;;;7.80;99.90;;;;;;5097375;28;20040;-79
2022/04/28 00:28:47;;;;;;;13.45;4.03;;;7.80;99.90;;;;;;5096383;28;20047;-79
2022/04/28 00:31:13;;;;;;;12.27;3.33;;;7.80;99.90;;;;;;5096565;28;20462;-79
2022/04/28 00:33:42;;;;;;;10.60;4.22;;;7.80;99.90;;;;;;5096607;28;20405;-79
2022/04/28 00:36:09;;;;;;;9.63;3.53;;;7.80;99.90;;;;;;5100169;28;20046;-79
2022/04/28 00:38:35;;;;;;;17.92;5.03;;;7.80;99.90;;;;;;5115392;28;20032;-79
2022/04/28 00:41:01;;;;;;;13.02;4.47;;;7.80;99.90;;;;;;5097198;28;20490;-79
2022/04/28 00:43:31;;;;;;;8.55;3.90;;;7.80;99.90;;;;;;5097110;28;20055;-79
2022/04/28 00:45:57;;;;;;;13.52;4.18;;;7.80;99.90;;;;;;5116088;28;20046;-79
2022/04/28 00:51:08;;;;;;;11.40;3.30;;;7.80;99.90;;;;;;5107625;28;20044;-80
2022/04/28 00:53:43;;;;;;;10.13;3.63;;;7.80;99.90;;;;;;5096147;28;20042;-79
2022/04/28 00:56:09;;;;;;;15.95;4.47;;;7.90;99.90;;;;;;5095680;28;20050;-79
2022/04/28 00:58:38;;;;;;;12.43;4.10;;;7.80;99.90;;;;;;5096766;28;20087;-79
2022/04/28 01:01:04;;;;;;;12.52;3.65;;;7.80;99.90;;;;;;5096252;28;20035;-79
2022/04/28 01:03:30;;;;;;;13.25;3.00;;;7.80;99.90;;;;;;5095180;28;20129;-79
2022/04/28 01:05:57;;;;;;;10.85;3.15;;;7.90;99.90;;;;;;5095663;28;20119;-79
2022/04/28 01:08:23;;;;;;;11.57;3.75;;;7.80;99.90;;;;;;5096012;28;20052;-79
2022/04/28 01:10:51;;;;;;;12.77;3.42;;;7.90;99.90;;;;;;5097067;28;20044;-79
2022/04/28 01:13:17;;;;;;;8.13;2.75;;;7.80;99.90;;;;;;5131938;27;20083;-79
2022/04/28 01:15:48;;;;;;;14.70;2.67;;;7.90;99.90;;;;;;5102018;28;20080;-79
2022/04/28 01:18:15;;;;;;;14.60;3.38;;;7.80;99.90;;;;;;5112002;28;20103;-79
2022/04/28 01:20:42;;;;;;;8.85;3.17;;;7.90;99.90;;;;;;5100412;28;20181;-79
2022/04/28 01:23:09;;;;;;;11.68;4.32;;;7.80;99.90;;;;;;5096309;28;20044;-79
2022/04/28 01:25:35;;;;;;;12.10;3.38;;;7.80;99.90;;;;;;5109906;28;20054;-79
2022/04/28 01:28:00;;;;;;;11.13;2.70;;;7.80;99.90;;;;;;5115892;28;20036;-79
2022/04/28 01:30:26;;;;;;;7.63;3.30;;;7.80;99.90;;;;;;5102338;28;20055;-79
2022/04/28 01:32:53;;;;;;;8.00;2.75;;;7.80;99.90;;;;;;5096123;28;20040;-79
2022/04/28 01:35:19;;;;;;;13.68;3.25;;;7.80;99.90;;;;;;5104845;28;20082;-79
2022/04/28 01:37:46;;;;;;;13.32;2.67;;;7.80;99.90;;;;;;5116481;28;20601;-79
2022/04/28 01:40:11;;;;;;;14.48;3.28;;;7.80;99.90;;;;;;5105630;28;20108;-79
2022/04/28 01:42:42;;;;;;;9.60;2.88;;;7.70;99.90;;;;;;5110813;28;20047;-79
2022/04/28 01:45:08;;;;;;;6.90;2.83;;;7.70;99.90;;;;;;5102024;28;20054;-79
2022/04/28 01:47:35;;;;;;;14.23;2.88;;;7.70;99.90;;;;;;5114808;28;20096;-79
2022/04/28 01:50:03;;;;;;;11.65;2.90;;;7.70;99.90;;;;;;5106212;28;20048;-80
2022/04/28 01:55:13;;;;;;;9.27;2.95;;;7.70;99.90;;;;;;5095952;28;20079;-79
2022/04/28 01:57:39;;;;;;;6.93;2.50;;;7.70;99.90;;;;;;5094162;28;20066;-79
2022/04/28 02:00:06;;;;;;;10.55;2.58;;;7.70;99.90;;;;;;5095124;28;20150;-79
2022/04/28 02:02:33;;;;;;;12.85;4.22;;;7.70;99.90;;;;;;5094939;28;20119;-79
2022/04/28 02:04:59;;;;;;;13.27;2.90;;;7.60;99.90;;;;;;5095470;28;20047;-79
2022/04/28 02:07:29;;;;;;;9.30;2.33;;;7.60;99.90;;;;;;5095046;28;20511;-79
2022/04/28 02:09:55;;;;;;;13.65;3.20;;;7.60;99.90;;;;;;5105372;28;20036;-79
2022/04/28 02:12:22;;;;;;;11.20;2.95;;;7.60;99.90;;;;;;5113377;28;20044;-79
2022/04/28 02:14:48;;;;;;;10.75;2.80;;;7.60;99.90;;;;;;5114549;28;20039;-79
2022/04/28 02:17:18;;;;;;;7.13;3.08;;;7.70;99.90;;;;;;5113904;28;20043;-79
2022/04/28 02:19:44;;;;;;;12.25;2.70;;;7.70;99.90;;;;;;5103225;28;20093;-79
2022/04/28 02:22:10;;;;;;;7.72;2.83;;;7.70;99.90;;;;;;5094924;28;20437;-79
2022/04/28 02:24:36;;;;;;;9.70;2.95;;;7.70;99.90;;;;;;5094335;28;20040;-79
2022/04/28 02:27:02;;;;;;;10.50;2.70;;;7.60;99.90;;;;;;5095194;28;20490;-79
2022/04/28 02:29:27;;;;;;;12.70;3.10;;;7.70;99.90;;;;;;5094947;28;20474;-79
2022/04/28 02:31:53;;;;;;;11.30;3.17;;;7.60;99.90;;;;;;5094210;28;20046;-79
2022/04/28 02:34:19;;;;;;;10.65;2.90;;;7.60;99.90;;;;;;5110659;28;20131;-79
2022/04/28 02:36:46;;;;;;;7.65;2.60;;;7.60;99.90;;;;;;5109876;28;20122;-79
2022/04/28 02:39:13;;;;;;;9.95;3.13;;;7.60;99.90;;;;;;5113380;28;20040;-79
2022/04/28 02:41:39;;;;;;;9.23;3.17;;;7.60;99.90;;;;;;5114120;28;20123;-79
2022/04/28 02:44:04;;;;;;;8.65;2.60;;;7.60;99.90;;;;;;5114997;28;20482;-79
2022/04/28 02:46:31;;;;;;;12.52;2.97;;;7.60;99.90;;;;;;5101191;28;20036;-80
2022/04/28 02:48:57;;;;;;;9.43;2.65;;;7.60;99.90;;;;;;5094611;28;20052;-79
2022/04/28 02:51:23;;;;;;;13.13;3.40;;;7.60;99.90;;;;;;5092655;28;20044;-80
2022/04/28 02:53:48;;;;;;;10.63;2.88;;;7.50;99.90;;;;;;5092364;28;20056;-79
2022/04/28 02:56:14;;;;;;;9.02;2.97;;;7.60;99.90;;;;;;5101132;28;20071;-79
2022/04/28 02:58:40;;;;;;;10.15;3.00;;;7.50;99.90;;;;;;5114069;28;20441;-79
2022/04/28 03:01:06;;;;;;;10.38;2.72;;;7.50;99.90;;;;;;5112862;28;20035;-79
2022/04/28 03:03:32;;;;;;;7.80;2.30;;;7.50;99.90;;;;;;5113699;28;20082;-79
2022/04/28 03:11:28;;;;;;;9.60;2.22;;;7.40;99.90;;;;;;5094357;28;20050;-79
2022/04/28 03:13:56;;;;;;;10.57;3.28;;;7.40;99.90;;;;;;5092212;28;20126;-79
2022/04/28 03:16:22;;;;;;;11.05;2.90;;;7.40;99.90;;;;;;5094478;28;20052;-79
2022/04/28 03:18:49;;;;;;;10.23;2.63;;;7.40;99.90;;;;;;5094245;28;20111;-79
2022/04/28 03:21:14;;;;;;;10.55;2.92;;;7.30;99.90;;;;;;5095179;28;20047;-79
2022/04/28 03:23:40;;;;;;;17.13;3.22;;;7.30;99.90;;;;;;5103104;28;20042;-79
2022/04/28 03:26:06;;;;;;;8.60;2.45;;;7.30;99.90;;;;;;5111089;28;20764;-79
2022/04/28 03:28:36;;;;;;;8.38;2.28;;;7.30;99.90;;;;;;5113365;28;20040;-80
2022/04/28 03:31:03;;;;;;;13.30;2.58;;;7.30;99.90;;;;;;5111502;28;20040;-79
2022/04/28 03:33:29;;;;;;;10.95;3.28;;;7.30;99.90;;;;;;5093633;28;20399;-79
2022/04/28 03:35:55;;;;;;;10.52;2.95;;;7.30;99.90;;;;;;5093157;28;20100;-79
2022/04/28 03:38:21;;;;;;;9.27;2.35;;;7.30;99.90;;;;;;5114350;28;20046;-79
2022/04/28 03:40:46;;;;;;;8.52;2.83;;;7.30;99.90;;;;;;5112818;28;20048;-79
2022/04/28 03:43:13;;;;;;;8.02;2.60;;;7.30;99.90;;;;;;5093402;28;20040;-79
2022/04/28 03:45:39;;;;;;;8.13;2.63;;;7.30;99.90;;;;;;5093781;28;20144;-79
2022/04/28 03:48:08;;;;;;;11.80;3.38;;;7.30;99.90;;;;;;5092685;28;20051;-79
2022/04/28 03:50:34;;;;;;;10.95;2.63;;;7.30;99.90;;;;;;5093921;28;20048;-79
2022/04/28 03:53:00;;;;;;;12.73;2.97;;;7.30;99.90;;;;;;5093512;28;20044;-79
2022/04/28 03:55:26;;;;;;;16.45;3.38;;;7.30;99.90;;;;;;5102547;28;20104;-79
2022/04/28 03:57:52;;;;;;;11.68;3.13;;;7.30;99.90;;;;;;5100779;28;20437;-79
2022/04/28 04:00:19;;;;;;;13.05;2.78;;;7.30;99.90;;;;;;5101443;28;20044;-79
2022/04/28 04:02:45;;;;;;;7.55;3.05;;;7.30;99.90;;;;;;5113206;28;20065;-79
2022/04/28 04:05:11;;;;;;;9.82;2.92;;;7.30;99.90;;;;;;5112780;28;20051;-79
2022/04/28 04:07:41;;;;;;;9.23;3.13;;;7.30;99.90;;;;;;5108415;28;20395;-79
2022/04/28 04:10:09;;;;;;;12.25;3.85;;;7.30;99.90;;;;;;5092711;28;20113;-79
2022/04/28 04:12:35;;;;;;;13.63;3.20;;;7.30;99.90;;;;;;5093742;28;20051;-79
2022/04/28 04:15:01;;;;;;;11.10;3.85;;;7.30;99.90;;;;;;5093558;28;20102;-79
2022/04/28 04:17:27;;;;;;;13.57;3.72;;;7.30;99.90;;;;;;5103418;28;20109;-79
2022/04/28 04:19:53;;;;;;;13.85;4.10;;;7.30;99.90;;;;;;5113732;28;20043;-79
2022/04/28 04:22:19;;;;;;;11.90;3.17;;;7.30;99.90;;;;;;5102156;28;20039;-79
2022/04/28 04:24:44;;;;;;;12.30;3.05;;;7.30;99.90;;;;;;5092319;28;20056;-79
2022/04/28 04:27:11;;;;;;;11.93;3.78;;;7.30;99.90;;;;;;5093319;28;20490;-79
2022/04/28 04:29:37;;;;;;;9.38;3.22;;;7.30;99.90;;;;;;5093460;28;20398;-79
2022/04/28 04:32:20;;;;;;;14.30;3.38;;;7.30;99.90;;;;;;5093436;28;20051;-79
2022/04/28 04:34:47;;;;;;;9.55;2.90;;;7.30;99.90;;;;;;5110002;28;20047;-80
2022/04/28 04:37:13;;;;;;;7.05;2.97;;;7.30;99.90;;;;;;5092161;28;20505;-80
2022/04/28 04:39:40;;;;;;;9.68;3.33;;;7.30;99.90;;;;;;5095007;28;20040;-80
2022/04/28 04:42:07;;;;;;;12.20;3.55;;;7.30;99.90;;;;;;5113632;28;20122;-80
2022/04/28 04:44:34;;;;;;;12.70;4.05;;;7.30;99.90;;;;;;5110375;28;20039;-80
2022/04/28 04:47:00;;;;;;;16.02;4.00;;;7.30;99.90;;;;;;5114382;28;20101;-80
2022/04/28 04:49:26;;;;;;;11.45;2.80;;;7.30;99.90;;;;;;5116330;28;20126;-80
2022/04/28 04:51:51;;;;;;;9.65;3.00;;;7.30;99.90;;;;;;5096500;28;20201;-80
2022/04/28 04:54:18;;;;;;;8.82;3.03;;;7.30;99.90;;;;;;5102729;28;20051;-80
2022/04/28 04:56:43;;;;;;;8.75;3.03;;;7.30;99.90;;;;;;5111942;28;20054;-81
2022/04/28 04:59:09;;;;;;;10.23;3.08;;;7.40;99.90;;;;;;5116291;28;20050;-80
2022/04/28 05:01:35;;;;;;;12.23;4.45;;;7.40;99.90;;;;;;5117031;28;20126;-80
2022/04/28 05:04:01;;;;;;;8.43;3.17;;;7.40;99.90;;;;;;5116014;28;20039;-80
2022/04/28 05:06:27;;;;;;;12.02;3.60;;;7.50;99.90;;;;;;5116260;27;20066;-80
2022/04/28 05:08:53;;;;;;;9.65;3.28;;;7.50;99.90;;;;;;5115714;28;20402;-80
2022/04/28 05:11:19;;;;;;;8.25;3.03;;;7.50;99.90;;;;;;5116805;28;20044;-80
2022/04/28 05:13:45;;;;;;;11.57;3.00;;;7.50;99.90;;;;;;5116004;28;20125;-80
2022/04/28 05:16:11;;;;;;;10.65;3.55;;;7.50;99.90;;;;;;5116961;28;20039;-80
2022/04/28 05:18:38;;;;;;;11.73;3.63;;;7.60;99.90;;;;;;5116391;28;20487;-79
2022/04/28 05:21:03;;;;;;;12.30;3.78;;;7.60;99.90;;;;;;5114591;28;20051;-81
2022/04/28 05:23:30;;;;;;;8.15;2.83;;;7.60;99.90;;;;;;5115881;27;20126;-81
2022/04/28 05:25:56;;;;;;;12.60;3.45;;;7.60;99.90;;;;;;5116434;28;20490;-81
2022/04/28 05:28:26;;;;;;;14.38;3.70;;;7.60;99.90;;;;;;5115877;28;20130;-81
2022/04/28 05:30:55;;;;;;;8.80;3.58;;;7.70;99.90;;;;;;5116405;28;20043;-81
2022/04/28 05:33:22;;;;;;;13.38;4.00;;;7.70;99.90;;;;;;5116121;28;20039;-81
2022/04/28 05:35:48;;;;;;;12.02;4.53;;;7.70;99.90;;;;;;5116525;28;20039;-81
2022/04/28 05:38:14;;;;;;;13.90;4.75;;;7.70;99.90;;;;;;5116524;28;20047;-81
2022/04/28 05:40:41;;;;;;;18.77;5.05;;;7.70;99.90;;;;;;5129990;27;20529;-81
2022/04/28 05:45:53;;;;;;;12.48;4.43;;;7.80;99.90;;;;;;5129302;27;20051;-81
2022/04/28 05:48:19;;;;;;;12.35;3.80;;;7.90;99.90;;;;;;5129318;27;20047;-80
2022/04/28 05:50:46;;;;;;;13.77;4.68;;;7.90;99.90;;;;;;5108199;28;20071;-80
2022/04/28 05:53:12;;;;;;;11.75;3.78;;;8.00;99.90;;;;;;5104992;28;20442;-81
2022/04/28 05:55:39;;;;;;;19.95;4.85;;;8.00;99.90;;;;;;5113477;28;20086;-80
2022/04/28 05:58:05;;;;;;;14.52;3.72;;;8.10;99.90;;;;;;5111254;28;20040;-81
2022/04/28 06:00:32;;;;;;;9.02;3.72;;;8.10;99.90;;;;;;5115699;27;20036;-81
2022/04/28 06:02:59;;;;;;;10.38;4.43;;;8.20;99.90;;;;;;5112940;28;20382;-81
2022/04/28 06:05:25;;;;;;;13.70;4.22;;;8.30;99.90;;;;;;5115281;28;20039;-81
2022/04/28 06:07:51;;;;;;;14.40;3.78;;;8.50;99.90;;;;;;5114050;27;20035;-80
2022/04/28 06:10:17;;;;;;;15.77;4.55;;;8.60;99.90;;;;;;5106272;28;20047;-80
2022/04/28 06:12:43;;;;;;;13.27;3.85;;;8.60;99.90;;;;;;5105732;28;20047;-81
2022/04/28 06:15:09;;;;;;;12.10;3.90;;;8.70;99.90;;;;;;5110066;28;20036;-80
2022/04/28 06:17:36;;;;;;;10.48;3.50;;;8.80;99.90;;;;;;5112910;28;20046;-81
2022/04/28 06:20:02;;;;;;;13.43;3.17;;;8.90;99.90;;;;;;5110633;27;20043;-80
2022/04/28 06:22:28;;;;;;;11.05;3.10;;;8.90;99.90;;;;;;5117626;27;20126;-81
2022/04/28 06:24:55;;;;;;;12.45;3.75;;;9.00;99.90;;;;;;5110548;28;20134;-80
2022/04/28 06:27:22;;;;;;;13.75;3.78;;;9.00;99.90;;;;;;5127823;27;20631;-81
2022/04/28 06:29:49;;;;;;;8.52;2.72;;;9.00;99.90;;;;;;5113588;28;20050;-80
2022/04/28 06:32:18;;;;;;;11.02;2.50;;;9.00;99.90;;;;;;5115873;28;20036;-81
2022/04/28 06:34:45;;;;;;;9.05;2.72;;;9.10;99.90;;;;;;5112884;28;20039;-81
2022/04/28 06:37:11;;;;;;;10.10;2.90;;;9.10;99.90;;;;;;5109195;28;20088;-80
2022/04/28 06:39:37;;;;;;;13.35;2.97;;;9.10;99.90;;;;;;5113964;28;20063;-79
2022/04/28 06:42:04;;;;;;;9.05;3.42;;;9.20;99.90;;;;;;5094469;28;20358;-81
2022/04/28 06:44:29;;;;;;;7.47;2.95;;;9.30;99.90;;;;;;5094309;28;20048;-81
2022/04/28 06:46:55;;;;;;;13.40;2.83;;;9.40;99.90;;;;;;5095059;28;20039;-80
2022/04/28 06:49:21;;;;;;;13.95;3.15;;;9.50;99.90;;;;;;5097525;28;20039;-81
2022/04/28 06:51:47;;;;;;;8.25;2.67;;;9.40;99.90;;;;;;5112102;28;20051;-81
2022/04/28 06:54:13;;;;;;;6.28;2.63;;;9.30;99.90;;;;;;5113829;28;20044;-81
2022/04/28 06:56:39;;;;;;;11.80;3.65;;;9.40;99.90;;;;;;5113641;28;20047;-80
2022/04/28 06:59:05;;;;;;;12.50;3.25;;;9.30;99.90;;;;;;5095824;28;20052;-81
2022/04/28 07:01:31;;;;;;;10.57;3.05;;;9.30;99.90;;;;;;5101956;28;20050;-82
2022/04/28 07:04:01;;;;;;;11.38;3.08;;;9.40;99.90;;;;;;5110084;28;20062;-82
2022/04/28 07:06:30;;;;;;;11.73;3.22;;;9.40;99.90;;;;;;5109133;28;20490;-81
2022/04/28 07:08:55;;;;;;;15.25;3.67;;;9.40;99.90;;;;;;5109979;28;20042;-81
2022/04/28 07:11:23;;;;;;;10.48;3.25;;;9.40;99.90;;;;;;5111935;28;20040;-82
2022/04/28 07:13:49;;;;;;;10.52;3.05;;;9.40;99.90;;;;;;5110586;28;20058;-81
2022/04/28 07:16:15;;;;;;;17.30;4.85;;;9.50;99.90;;;;;;5112474;28;20039;-82
2022/04/28 07:18:40;;;;;;;9.13;3.58;;;9.50;99.90;;;;;;5112443;28;20039;-82
2022/04/28 07:21:06;;;;;;;10.27;2.67;;;9.60;99.90;;;;;;5110306;28;20126;-81
2022/04/28 07:23:32;;;;;;;11.32;2.35;;;9.60;99.90;;;;;;5108661;28;20036;-81
2022/04/28 07:25:58;;;;;;;9.70;3.40;;;9.60;99.90;;;;;;5106738;28;20101;-83
2022/04/28 07:28:24;;;;;;;11.20;3.00;;;9.60;99.90;;;;;;5094727;28;20044;-81
2022/04/28 07:30:49;;;;;;;9.38;2.35;;;9.50;99.90;;;;;;5099149;28;20043;-81
2022/04/28 07:33:15;;;;;;;6.95;2.20;;;9.50;99.90;;;;;;5107972;28;20069;-82
2022/04/28 07:35:41;;;;;;;8.73;2.72;;;9.50;99.90;;;;;;5112847;28;20055;-81
2022/04/28 07:38:08;;;;;;;12.35;2.83;;;9.50;99.90;;;;;;5112492;28;20043;-81
2022/04/28 07:40:36;;;;;;;7.82;2.70;;;9.50;99.90;;;;;;5112154;28;20166;-81
2022/04/28 07:43:02;;;;;;;13.65;3.58;;;9.60;99.90;;;;;;5111787;28;20067;-81
2022/04/28 07:45:28;;;;;;;14.13;2.80;;;9.60;99.90;;;;;;5106194;28;20040;-81
2022/04/28 07:47:54;;;;;;;9.88;3.08;;;9.70;99.90;;;;;;5099449;28;20042;-82
2022/04/28 07:50:20;;;;;;;9.55;2.90;;;9.80;99.90;;;;;;5108562;28;20062;-81
2022/04/28 07:52:47;;;;;;;15.65;2.85;;;10.00;99.90;;;;;;5098903;28;20119;-81
2022/04/28 07:55:13;;;;;;;8.70;2.38;;;10.20;99.90;;;;;;5107982;28;20052;-82
2022/04/28 07:57:39;;;;;;;12.82;2.42;;;10.20;99.90;;;;;;5093713;28;20036;-81
2022/04/28 08:00:07;;;;;;;8.98;2.30;;;10.20;99.90;;;;;;5094082;28;20032;-82
2022/04/28 08:02:36;;;;;;;12.63;4.30;;;10.20;99.90;;;;;;5093394;28;20675;-81
2022/04/28 08:05:04;;;;;;;8.35;2.33;;;10.20;99.90;;;;;;5091733;28;20123;-81
2022/04/28 08:07:31;;;;;;;10.05;2.20;;;10.30;99.90;;;;;;5109056;28;20054;-82
2022/04/28 08:09:57;;;;;;;7.28;1.85;;;10.40;99.90;;;;;;5111068;28;20399;-82
2022/04/28 08:12:23;;;;;;;7.43;1.80;;;10.40;99.90;;;;;;5103000;28;20039;-82
2022/04/28 08:14:49;;;;;;;16.33;1.77;;;10.40;99.90;;;;;;5092343;28;20104;-81
2022/04/28 08:17:15;;;;;;;12.40;2.30;;;10.40;99.90;;;;;;5092904;28;20036;-81
2022/04/28 08:19:41;;;;;;;8.20;1.88;;;10.50;99.90;;;;;;5095165;28;20161;-81
2022/04/28 08:22:07;;;;;;;7.22;1.60;;;10.50;99.90;;;;;;5109253;28;20510;-82
2022/04/28 08:24:33;;;;;;;9.50;1.60;;;10.60;99.90;;;;;;5114989;28;20044;-81
2022/04/28 08:26:59;;;;;;;11.50;1.95;;;10.60;99.90;;;;;;5114556;28;20043;-81
2022/04/28 08:29:25;;;;;;;6.82;1.48;;;10.60;99.90;;;;;;5114685;28;20043;-81
2022/04/28 08:31:51;;;;;;;4.35;1.70;;;10.70;99.90;;;;;;5111198;28;20048;-82
2022/04/28 08:34:21;;;;;;;4.55;1.60;;;10.70;99.90;;;;;;5097354;28;20149;-83
2022/04/28 08:36:49;;;;;;;9.45;2.00;;;10.80;99.90;;;;;;5108752;28;20414;-82
2022/04/28 08:39:15;;;;;;;7.25;1.10;;;10.80;99.90;;;;;;5104969;28;20475;-81
2022/04/28 08:41:47;;;;;;;10.40;2.42;;;11.00;99.90;;;;;;5108541;28;20066;-82
2022/04/28 08:44:33;;;;;;;10.35;1.38;;;11.20;99.90;;;;;;5102722;28;20055;-82
2022/04/28 08:46:59;;;;;;;7.20;1.65;;;11.40;99.90;;;;;;5115649;28;20510;-83
2022/04/28 08:49:29;;;;;;;9.60;1.58;;;11.20;99.90;;;;;;5114557;28;20065;-81
2022/04/28 08:51:58;;;;;;;12.90;2.17;;;11.10;99.90;;;;;;5112688;28;20056;-81
2022/04/28 08:54:25;;;;;;;4.65;1.35;;;11.20;99.90;;;;;;5114406;27;20030;-81
2022/04/28 08:56:53;;;;;;;7.78;1.73;;;11.10;99.90;;;;;;5116235;28;20040;-81
2022/04/28 08:59:24;;;;;;;4.22;2.20;;;11.10;99.90;;;;;;5113910;28;20032;-82
2022/04/28 09:01:51;;;;;;;8.60;1.52;;;11.20;99.90;;;;;;5108425;28;20059;-83
2022/04/28 09:04:17;;;;;;;10.20;1.92;;;11.20;99.90;;;;;;5106545;28;20079;-81
2022/04/28 09:06:44;;;;;;;7.70;1.73;;;11.20;99.90;;;;;;5114229;27;20054;-81
2022/04/28 09:09:12;;;;;;;13.32;2.38;;;11.30;99.90;;;;;;5113834;28;20376;-82
2022/04/28 09:11:40;;;;;;;5.82;1.80;;;11.30;99.90;;;;;;5096853;28;20044;-82
2022/04/28 09:14:18;;;;;;;6.93;1.20;;;11.40;99.90;;;;;;5115638;28;20455;-82
2022/04/28 09:17:00;;;;;;;10.15;2.10;;;11.60;99.90;;;;;;5115728;28;20138;-82
2022/04/28 09:19:34;;;;;;;6.47;1.77;;;11.60;99.90;;;;;;5114440;28;20048;-81
2022/04/28 09:22:02;;;;;;;5.03;1.67;;;11.60;99.90;;;;;;5117352;27;20078;-82
2022/04/28 09:24:28;;;;;;;8.32;1.60;;;11.70;99.90;;;;;;5115544;28;20312;-82
2022/04/28 09:26:55;;;;;;;12.07;2.78;;;11.70;99.90;;;;;;5115488;28;20046;-82
2022/04/28 09:29:22;;;;;;;6.63;2.15;;;11.70;99.90;;;;;;5115030;28;20058;-82
2022/04/28 09:31:50;;;;;;;8.35;1.70;;;11.80;99.90;;;;;;5115761;28;20046;-81
2022/04/28 09:34:19;;;;;;;14.45;2.50;;;11.90;99.90;;;;;;5115535;28;20036;-82
2022/04/28 09:36:46;;;;;;;8.30;1.88;;;11.90;99.90;;;;;;5115392;28;20429;-81
2022/04/28 09:42:29;;;;;;;9.93;1.73;;;12.00;99.90;;;;;;5116667;27;20071;-83
2022/04/28 09:42:30;;;;;;;6.55;1.83;;;12.00;99.90;;;;;;5116365;28;20077;-81
2022/04/28 09:44:58;;;;;;;6.68;1.70;;;11.90;99.90;;;;;;5114567;28;20097;-81
2022/04/28 09:47:26;;;;;;;10.95;2.00;;;11.80;99.90;;;;;;5113887;28;20487;-82
2022/04/28 09:49:58;;;;;;;7.68;2.17;;;11.70;99.90;;;;;;5111987;28;20048;-82
2022/04/28 09:52:24;;;;;;;9.00;2.13;;;11.60;99.90;;;;;;5114835;28;20048;-83
2022/04/28 09:54:57;;;;;;;10.32;2.00;;;11.60;99.90;;;;;;5114387;28;20108;-81
2022/04/28 09:57:23;;;;;;;9.02;2.35;;;11.60;99.90;;;;;;5114658;28;20489;-81
2022/04/28 09:59:59;;;;;;;7.45;1.65;;;11.60;99.90;;;;;;5112928;28;20490;-82
2022/04/28 10:02:26;;;;;;;8.00;2.05;;;11.70;99.90;;;;;;5114163;28;20458;-81
2022/04/28 10:04:54;;;;;;;9.73;2.40;;;11.60;99.90;;;;;;5114902;28;20483;-82
2022/04/28 10:07:21;;;;;;;8.73;2.78;;;11.60;99.90;;;;;;5113861;28;20051;-81
2022/04/28 10:09:49;;;;;;;6.10;1.80;;;11.50;99.90;;;;;;5109787;28;20052;-82
2022/04/28 10:12:25;;;;;;;6.90;1.90;;;11.60;99.90;;;;;;5097846;28;20491;-81
2022/04/28 10:14:53;;;;;;;8.00;2.05;;;11.60;99.90;;;;;;5097849;28;20139;-82
2022/04/28 10:17:42;;;;;;;10.23;2.88;;;11.70;99.90;;;;;;5127194;27;20390;-83
2022/04/28 10:20:13;;;;;;;9.10;2.55;;;11.80;99.90;;;;;;5110505;28;20043;-80
2022/04/28 10:22:41;;;;;;;7.53;2.13;;;11.80;99.90;;;;;;5106452;28;20066;-82
2022/04/28 10:33:42;;;;;;;11.63;2.28;;;11.60;99.90;;;;;;5114314;28;20051;-82
2022/04/28 10:36:18;;;;;;;13.45;2.63;;;11.60;99.90;;;;;;5113579;28;20444;-81
2022/04/28 10:39:05;;;;;;;9.20;2.40;;;11.50;99.90;;;;;;5113421;28;20109;-81
2022/04/28 10:41:31;;;;;;;9.48;2.13;;;11.50;99.90;;;;;;5114239;28;20078;-81
2022/04/28 10:44:00;;;;;;;13.40;2.42;;;11.50;99.90;;;;;;5112141;28;20084;-82
2022/04/28 10:46:30;;;;;;;12.40;2.40;;;11.50;99.90;;;;;;5121906;27;20051;-82
2022/04/28 10:49:05;;;;;;;9.73;2.53;;;11.50;99.90;;;;;;5114751;28;20075;-80
2022/04/28 10:51:32;;;;;;;;;;;11.50;99.90;;;;;;5111479;28;20583;-82
2022/04/28 10:54:07;;;;;;;9.38;1.75;;;11.50;99.90;;;;;;5114999;28;19920;-79
2022/04/28 10:56:42;;;;;;;10.93;3.03;;;11.50;99.90;;;;;;5100429;28;20043;-83
2022/04/28 10:59:29;;;;;;;9.23;2.17;;;11.50;99.90;;;;;;5102769;28;20478;-81
2022/04/28 11:01:56;;;;;;;9.23;2.67;;;11.40;99.90;;;;;;5114632;28;20047;-80
2022/04/28 11:04:24;;;;;;;11.55;3.38;;;11.30;99.90;;;;;;5111948;28;20046;-81
2022/04/28 11:06:59;;;;;;;13.02;3.05;;;11.30;99.90;;;;;;5113393;28;20047;-80
2022/04/28 11:09:35;;;;;;;13.25;2.60;;;11.40;99.90;;;;;;5101347;28;20048;-80
2022/04/28 11:12:08;;;;;;;9.55;2.78;;;11.50;99.90;;;;;;5105105;28;20039;-80
2022/04/28 11:14:47;;;;;;;9.95;2.90;;;11.70;99.90;;;;;;5099756;28;20420;-81
2022/04/28 11:17:14;;;;;;;10.85;2.92;;;11.80;99.90;;;;;;5094040;28;20457;-80
2022/04/28 11:19:40;;;;;;;7.07;2.22;;;11.60;99.90;;;;;;5092603;28;20043;-81
2022/04/28 11:22:07;;;;;;;12.15;3.33;;;11.60;99.90;;;;;;5092657;28;20530;-83
2022/04/28 11:24:33;;;;;;;10.27;2.75;;;11.70;99.90;;;;;;5103904;28;20051;-80
2022/04/28 11:27:00;;;;;;;23.38;3.63;;;11.60;99.90;;;;;;5113457;28;20052;-80
2022/04/28 11:29:28;;;;;;;13.25;3.17;;;11.70;99.90;;;;;;5102292;28;20040;-79
2022/04/28 11:31:54;;;;;;;13.20;3.72;;;11.80;99.90;;;;;;5105679;28;20107;-80
2022/04/28 11:34:20;;;;;;;11.90;3.40;;;11.90;99.90;;;;;;5104326;28;20127;-81
2022/04/28 11:36:46;;;;;;;13.32;3.22;;;11.90;99.90;;;;;;5101920;28;20044;-81
2022/04/28 11:39:13;;;;;;;12.05;3.17;;;11.80;99.90;;;;;;5113065;28;20057;-82
2022/04/28 11:41:40;;;;;;;12.57;3.10;;;11.80;99.90;;;;;;5097373;28;20123;-81
2022/04/28 11:44:13;;;;;;;11.50;3.17;;;11.80;99.90;;;;;;5101105;28;20544;-80
2022/04/28 11:46:42;;;;;;;15.57;3.30;;;11.80;99.90;;;;;;5111783;28;20055;-80
2022/04/28 11:49:09;;;;;;;9.95;3.00;;;11.80;99.90;;;;;;5113817;28;20150;-81
2022/04/28 11:51:35;;;;;;;13.07;2.67;;;11.90;99.90;;;;;;5112424;28;20071;-83
2022/04/28 11:54:03;;;;;;;9.38;3.10;;;12.00;99.90;;;;;;5112746;28;20042;-80
2022/04/28 11:56:35;;;;;;;7.80;2.65;;;11.90;99.90;;;;;;5113860;28;20043;-81
2022/04/28 11:59:04;;;;;;;10.15;2.83;;;11.80;99.90;;;;;;5112577;28;20490;-80
2022/04/28 12:01:32;;;;;;;7.43;2.33;;;11.70;99.90;;;;;;5112934;28;20047;-82
2022/04/28 12:03:59;;;;;;;9.98;2.78;;;11.80;99.90;;;;;;5112437;28;20043;-81
2022/04/28 12:06:25;;;;;;;13.10;2.53;;;11.80;99.90;;;;;;5113943;28;20051;-80
2022/04/28 12:08:57;;;;;;;14.82;2.60;;;11.70;99.90;;;;;;5112774;28;20498;-83
2022/04/28 12:14:22;;;;;;;6.63;1.92;;;11.60;99.90;;;;;;5113768;28;20426;-82
2022/04/28 12:20:10;;;;;;;11.00;2.83;;;11.50;99.90;;;;;;5113624;28;20043;-80
2022/04/28 12:22:40;;;;;;;12.20;2.65;;;11.70;99.90;;;;;;5101728;28;20055;-81
2022/04/28 12:25:15;;;;;;;10.30;2.45;;;11.80;99.90;;;;;;5093370;28;20192;-82
2022/04/28 12:27:48;;;;;;;9.50;2.63;;;11.90;99.90;;;;;;5095116;28;20097;-81
2022/04/28 12:30:20;;;;;;;9.80;2.83;;;12.00;99.90;;;;;;5112106;28;20135;-82
2022/04/28 12:32:51;;;;;;;11.60;2.22;;;12.10;99.90;;;;;;5075150;28;20043;-83
2022/04/28 12:35:25;;;;;;;11.00;2.90;;;12.10;99.90;;;;;;5093179;28;20040;-80
2022/04/28 12:38:09;;;;;;;9.43;2.08;;;12.00;99.90;;;;;;5110498;28;20052;-81
2022/04/28 12:40:37;;;;;;;9.70;2.45;;;12.10;99.90;;;;;;5112945;28;20043;-81
2022/04/28 12:43:03;;;;;;;9.95;2.67;;;12.10;99.90;;;;;;5107583;28;20133;-81
2022/04/28 12:46:03;;;;;;;8.10;2.13;;;12.10;99.90;;;;;;5093070;28;20040;-82
2022/04/28 12:48:33;;;;;;;16.30;3.20;;;12.00;99.90;;;;;;5084946;28;20048;-81
2022/04/28 12:51:16;;;;;;;9.60;2.35;;;12.10;99.90;;;;;;5101174;28;20028;-81
2022/04/28 12:53:44;;;;;;;13.70;2.83;;;12.20;99.90;;;;;;5113589;28;20043;-82
2022/04/28 12:56:13;;;;;;;9.45;2.28;;;12.30;99.90;;;;;;5100809;28;20048;-80
2022/04/28 12:58:57;;;;;;;11.63;2.55;;;12.30;99.90;;;;;;5090869;28;20479;-81
2022/04/28 13:01:24;;;;;;;13.65;3.28;;;12.20;99.90;;;;;;5093158;28;20040;-81
2022/04/28 13:04:03;;;;;;;9.95;2.65;;;12.00;99.90;;;;;;5090966;28;20062;-80
2022/04/28 13:06:31;;;;;;;9.05;2.50;;;12.00;99.90;;;;;;5101247;28;20118;-81
2022/04/28 13:08:59;;;;;;;11.60;2.97;;;12.00;99.90;;;;;;5110055;28;20040;-81
2022/04/28 13:11:30;;;;;;;8.48;2.20;;;12.00;99.90;;;;;;5100239;28;20044;-83
2022/04/28 13:13:58;;;;;;;6.95;2.28;;;12.10;99.90;;;;;;5114182;28;20047;-82
2022/04/28 13:16:24;;;;;;;7.60;2.45;;;11.90;99.90;;;;;;5110293;28;20076;-83
2022/04/28 13:18:51;;;;;;;11.85;3.90;;;11.80;99.90;;;;;;5094238;28;20051;-81
2022/04/28 13:21:17;;;;;;;6.82;2.28;;;11.80;99.90;;;;;;5095585;28;20050;-82